CheckWX is a tool to help pilots better visualize weather data.  It is not intended as a substitute for an official pre-flight weather briefing.

13:05:45 UTC

DTTF TAF
Gafsa Ksar International Airport
Gafsa, Tunisia
TAF DTTF 181200Z 1813/1822 24010KT 9999 FEW026 BECMG 1820/1822 18010KT

Aug-18@
13:00 UTC

Aug-18 @ 13:00 UTC

Aug-18@
20:00 UTC

Aug-18 @ 20:00 UTC

TAF DTTF 181200Z 1813/1822 24010KT 9999 FEW026
Wind
  • 240° at 10 KTS
Cloud Levels
  • Few at 2,600' AGL

Aug-18@
20:00 UTC

Aug-18 @ 20:00 UTC

Aug-18@
22:00 UTC

Aug-18 @ 22:00 UTC

BECMG 1820/1822 18010KT

Becoming

Becoming Conditions expected by Sun, Aug 18, 2019 @ 22:00 UTC

Wind
  • 180° at 10 KTS
Cloud Levels
  • Few at 2,600' AGL